sensor_id;sensor_type;location;lat;lon;timestamp;pressure;altitude;pressure_sealevel;temperature;humidity
46944;BME280;32678;43.852;25.952;2023-02-17T00:02:33;101969.63;;;4.63;69.77
46944;BME280;32678;43.852;25.952;2023-02-17T00:07:29;101966.06;;;4.54;70.10
46944;BME280;32678;43.852;25.952;2023-02-17T00:12:27;101978.97;;;4.48;70.97
46944;BME280;32678;43.852;25.952;2023-02-17T00:17:24;101962.34;;;4.35;72.16
46944;BME280;32678;43.852;25.952;2023-02-17T00:22:22;101954.69;;;4.43;72.15
46944;BME280;32678;43.852;25.952;2023-02-17T00:27:19;101946.72;;;4.29;72.79
46944;BME280;32678;43.852;25.952;2023-02-17T00:32:15;101939.13;;;4.44;72.52
46944;BME280;32678;43.852;25.952;2023-02-17T00:37:12;101926.28;;;4.59;72.65
46944;BME280;32678;43.852;25.952;2023-02-17T00:42:10;101921.25;;;4.79;72.45
46944;BME280;32678;43.852;25.952;2023-02-17T00:47:06;101924.13;;;5.06;71.67
46944;BME280;32678;43.852;25.952;2023-02-17T00:52:03;101920.75;;;5.19;70.99
46944;BME280;32678;43.852;25.952;2023-02-17T00:57:02;101923.31;;;5.12;70.31
46944;BME280;32678;43.852;25.952;2023-02-17T01:02:01;101918.19;;;5.22;70.52
46944;BME280;32678;43.852;25.952;2023-02-17T01:06:58;101911.28;;;5.26;70.76
46944;BME280;32678;43.852;25.952;2023-02-17T01:11:54;101901.84;;;5.43;69.77
46944;BME280;32678;43.852;25.952;2023-02-17T01:16:53;101890.66;;;5.56;69.28
46944;BME280;32678;43.852;25.952;2023-02-17T01:21:51;101878.41;;;5.36;70.00
46944;BME280;32678;43.852;25.952;2023-02-17T01:26:47;101877.47;;;5.29;69.05
46944;BME280;32678;43.852;25.952;2023-02-17T01:31:44;101877.19;;;4.87;70.19
46944;BME280;32678;43.852;25.952;2023-02-17T01:36:41;101871.03;;;4.74;70.77
46944;BME280;32678;43.852;25.952;2023-02-17T01:41:41;101862.19;;;4.54;72.09
46944;BME280;32678;43.852;25.952;2023-02-17T01:46:39;101861.59;;;4.87;71.45
46944;BME280;32678;43.852;25.952;2023-02-17T01:51:36;101861.66;;;4.97;71.37
46944;BME280;32678;43.852;25.952;2023-02-17T01:56:34;101858.38;;;5.22;69.71
46944;BME280;32678;43.852;25.952;2023-02-17T02:01:33;101855.56;;;4.94;70.16
46944;BME280;32678;43.852;25.952;2023-02-17T02:06:30;101846.78;;;4.79;70.93
46944;BME280;32678;43.852;25.952;2023-02-17T02:11:30;101846.91;;;4.95;69.89
46944;BME280;32678;43.852;25.952;2023-02-17T02:16:28;101840.00;;;4.97;69.55
46944;BME280;32678;43.852;25.952;2023-02-17T02:32:03;101835.75;;;5.09;67.19
46944;BME280;32678;43.852;25.952;2023-02-17T02:37:06;101821.72;;;4.83;68.76
46944;BME280;32678;43.852;25.952;2023-02-17T02:42:05;101806.91;;;4.74;68.72
46944;BME280;32678;43.852;25.952;2023-02-17T02:47:05;101813.97;;;4.88;68.22
46944;BME280;32678;43.852;25.952;2023-02-17T02:52:08;101810.50;;;4.89;67.55
46944;BME280;32678;43.852;25.952;2023-02-17T02:57:12;101813.94;;;4.89;68.20
46944;BME280;32678;43.852;25.952;2023-02-17T03:02:15;101816.59;;;4.95;67.63
46944;BME280;32678;43.852;25.952;2023-02-17T03:07:17;101816.59;;;4.95;67.23
46944;BME280;32678;43.852;25.952;2023-02-17T03:12:17;101824.56;;;5.21;66.81
46944;BME280;32678;43.852;25.952;2023-02-17T03:17:14;101835.66;;;4.99;68.67
46944;BME280;32678;43.852;25.952;2023-02-17T03:22:12;101844.19;;;4.76;70.33
46944;BME280;32678;43.852;25.952;2023-02-17T03:27:11;101846.00;;;4.90;70.96
46944;BME280;32678;43.852;25.952;2023-02-17T03:32:08;101846.81;;;4.81;70.85
46944;BME280;32678;43.852;25.952;2023-02-17T03:37:05;101855.34;;;4.66;71.36
46944;BME280;32678;43.852;25.952;2023-02-17T03:42:02;101845.78;;;4.59;70.68
46944;BME280;32678;43.852;25.952;2023-02-17T03:46:59;101840.41;;;4.41;70.61
46944;BME280;32678;43.852;25.952;2023-02-17T03:51:56;101836.22;;;4.54;70.25
46944;BME280;32678;43.852;25.952;2023-02-17T03:56:54;101838.16;;;4.82;69.92
46944;BME280;32678;43.852;25.952;2023-02-17T04:01:51;101839.09;;;4.92;68.44
46944;BME280;32678;43.852;25.952;2023-02-17T04:06:48;101843.44;;;4.91;67.84
46944;BME280;32678;43.852;25.952;2023-02-17T04:11:48;101837.06;;;4.54;67.65
46944;BME280;32678;43.852;25.952;2023-02-17T04:16:45;101833.56;;;4.51;68.73
46944;BME280;32678;43.852;25.952;2023-02-17T04:21:42;101808.50;;;4.56;68.78
46944;BME280;32678;43.852;25.952;2023-02-17T04:26:44;101832.09;;;4.82;68.26
46944;BME280;32678;43.852;25.952;2023-02-17T04:31:40;101839.22;;;5.07;68.23
46944;BME280;32678;43.852;25.952;2023-02-17T04:36:39;101840.94;;;5.03;67.46
46944;BME280;32678;43.852;25.952;2023-02-17T04:41:39;101847.94;;;5.15;66.51
46944;BME280;32678;43.852;25.952;2023-02-17T04:46:37;101859.25;;;5.21;65.77
46944;BME280;32678;43.852;25.952;2023-02-17T04:51:33;101840.19;;;5.29;65.53
46944;BME280;32678;43.852;25.952;2023-02-17T04:56:30;101850.66;;;5.35;65.43
46944;BME280;32678;43.852;25.952;2023-02-17T05:01:30;101854.03;;;5.23;66.01
46944;BME280;32678;43.852;25.952;2023-02-17T05:06:27;101855.69;;;5.13;66.63
46944;BME280;32678;43.852;25.952;2023-02-17T05:11:24;101859.22;;;5.17;66.25
46944;BME280;32678;43.852;25.952;2023-02-17T05:16:21;101857.44;;;5.14;66.84
46944;BME280;32678;43.852;25.952;2023-02-17T05:21:18;101859.25;;;5.24;67.63
46944;BME280;32678;43.852;25.952;2023-02-17T05:26:15;101871.38;;;5.24;67.90
46944;BME280;32678;43.852;25.952;2023-02-17T05:31:12;101868.03;;;5.37;67.93
46944;BME280;32678;43.852;25.952;2023-02-17T05:36:09;101859.31;;;5.35;68.55
46944;BME280;32678;43.852;25.952;2023-02-17T05:41:06;101882.88;;;5.59;68.21
46944;BME280;32678;43.852;25.952;2023-02-17T05:46:04;101896.78;;;5.61;69.01
46944;BME280;32678;43.852;25.952;2023-02-17T05:51:02;101890.69;;;5.62;68.92
46944;BME280;32678;43.852;25.952;2023-02-17T05:56:01;101895.97;;;5.76;68.67
46944;BME280;32678;43.852;25.952;2023-02-17T06:00:58;101898.53;;;5.70;69.30
46944;BME280;32678;43.852;25.952;2023-02-17T06:05:56;101906.38;;;5.78;69.16
46944;BME280;32678;43.852;25.952;2023-02-17T06:10:52;101899.38;;;5.67;70.19
46944;BME280;32678;43.852;25.952;2023-02-17T06:15:49;101908.13;;;5.80;70.59
46944;BME280;32678;43.852;25.952;2023-02-17T06:20:46;101920.16;;;5.60;71.42
46944;BME280;32678;43.852;25.952;2023-02-17T06:25:44;101926.25;;;5.65;71.19
46944;BME280;32678;43.852;25.952;2023-02-17T06:30:41;101930.56;;;5.58;72.34
46944;BME280;32678;43.852;25.952;2023-02-17T06:35:46;101930.66;;;5.75;72.21
46944;BME280;32678;43.852;25.952;2023-02-17T06:40:44;101929.91;;;5.90;72.27
46944;BME280;32678;43.852;25.952;2023-02-17T06:45:41;101922.91;;;5.84;72.67
46944;BME280;32678;43.852;25.952;2023-02-17T06:50:37;101899.47;;;5.83;72.76
46944;BME280;32678;43.852;25.952;2023-02-17T06:55:34;101909.97;;;5.93;71.88
46944;BME280;32678;43.852;25.952;2023-02-17T07:00:34;101925.63;;;6.04;72.10
46944;BME280;32678;43.852;25.952;2023-02-17T07:05:36;101937.78;;;6.00;72.13
46944;BME280;32678;43.852;25.952;2023-02-17T07:10:35;101944.72;;;6.04;71.58
46944;BME280;32678;43.852;25.952;2023-02-17T07:15:32;101944.78;;;6.15;71.58
46944;BME280;32678;43.852;25.952;2023-02-17T07:20:30;101958.63;;;6.11;71.46
46944;BME280;32678;43.852;25.952;2023-02-17T07:25:27;101953.38;;;5.96;72.61
46944;BME280;32678;43.852;25.952;2023-02-17T07:30:24;101951.72;;;6.15;72.55
46944;BME280;32678;43.852;25.952;2023-02-17T07:35:23;101964.72;;;6.13;72.02
46944;BME280;32678;43.852;25.952;2023-02-17T07:40:29;101967.44;;;6.42;71.02
46944;BME280;32678;43.852;25.952;2023-02-17T07:45:36;101970.03;;;6.37;71.05
46944;BME280;32678;43.852;25.952;2023-02-17T07:50:38;101970.91;;;6.45;70.90
46944;BME280;32678;43.852;25.952;2023-02-17T08:07:25;101969.97;;;6.24;71.69
46944;BME280;32678;43.852;25.952;2023-02-17T08:12:49;101966.59;;;6.47;71.38
46944;BME280;32678;43.852;25.952;2023-02-17T08:18:20;101966.63;;;6.70;70.84
46944;BME280;32678;43.852;25.952;2023-02-17T08:24:06;101967.50;;;6.71;70.92
46944;BME280;32678;43.852;25.952;2023-02-17T08:29:25;101969.28;;;6.91;70.76
46944;BME280;32678;43.852;25.952;2023-02-17T08:34:58;101968.44;;;6.99;70.39
46944;BME280;32678;43.852;25.952;2023-02-17T08:58:17;101981.44;;;7.87;68.73
46944;BME280;32678;43.852;25.952;2023-02-17T09:04:26;101978.75;;;8.05;67.89
46944;BME280;32678;43.852;25.952;2023-02-17T09:09:57;101976.88;;;8.42;66.89
46944;BME280;32678;43.852;25.952;2023-02-17T09:40:27;101975.59;;;9.11;64.60
46944;BME280;32678;43.852;25.952;2023-02-17T09:46:18;101962.09;;;9.60;62.43
46944;BME280;32678;43.852;25.952;2023-02-17T09:51:21;101962.84;;;9.71;62.74
46944;BME280;32678;43.852;25.952;2023-02-17T09:56:27;101957.41;;;9.92;61.71
46944;BME280;32678;43.852;25.952;2023-02-17T10:01:27;101948.44;;;10.11;60.02
46944;BME280;32678;43.852;25.952;2023-02-17T10:06:27;101937.97;;;10.10;60.27
46944;BME280;32678;43.852;25.952;2023-02-17T10:11:27;101938.69;;;10.22;58.58
46944;BME280;32678;43.852;25.952;2023-02-17T10:16:27;101932.38;;;10.37;58.89
46944;BME280;32678;43.852;25.952;2023-02-17T10:21:30;101931.00;;;10.73;57.66
46944;BME280;32678;43.852;25.952;2023-02-17T10:26:34;101921.34;;;10.76;56.85
46944;BME280;32678;43.852;25.952;2023-02-17T10:31:39;101905.59;;;10.76;57.55
46944;BME280;32678;43.852;25.952;2023-02-17T10:36:44;101905.28;;;10.96;57.78
46944;BME280;32678;43.852;25.952;2023-02-17T10:41:48;101896.38;;;11.05;56.03
46944;BME280;32678;43.852;25.952;2023-02-17T10:46:47;101902.81;;;11.38;55.88
46944;BME280;32678;43.852;25.952;2023-02-17T10:51:53;101871.50;;;11.27;56.19
46944;BME280;32678;43.852;25.952;2023-02-17T10:56:52;101881.06;;;11.31;55.65
46944;BME280;32678;43.852;25.952;2023-02-17T11:01:50;101894.75;;;11.48;55.67
46944;BME280;32678;43.852;25.952;2023-02-17T11:06:48;101897.13;;;11.60;55.17
46944;BME280;32678;43.852;25.952;2023-02-17T11:11:48;101885.09;;;11.49;55.27
46944;BME280;32678;43.852;25.952;2023-02-17T11:16:51;101887.53;;;11.59;54.78
46944;BME280;32678;43.852;25.952;2023-02-17T11:21:50;101891.03;;;11.58;53.94
46944;BME280;32678;43.852;25.952;2023-02-17T11:26:54;101881.28;;;11.66;52.90
46944;BME280;32678;43.852;25.952;2023-02-17T11:31:56;101874.81;;;11.84;52.12
46944;BME280;32678;43.852;25.952;2023-02-17T11:37:13;101864.00;;;11.98;51.95
46944;BME280;32678;43.852;25.952;2023-02-17T11:42:23;101850.50;;;12.14;51.95
46944;BME280;32678;43.852;25.952;2023-02-17T11:47:51;101846.69;;;12.28;52.00
46944;BME280;32678;43.852;25.952;2023-02-17T11:53:13;101838.78;;;12.29;52.46
46944;BME280;32678;43.852;25.952;2023-02-17T11:58:22;101835.81;;;12.43;51.95
46944;BME280;32678;43.852;25.952;2023-02-17T12:03:49;101832.25;;;12.81;49.13
46944;BME280;32678;43.852;25.952;2023-02-17T12:08:56;101820.22;;;12.71;47.14
46944;BME280;32678;43.852;25.952;2023-02-17T12:14:00;101833.66;;;12.60;47.78
46944;BME280;32678;43.852;25.952;2023-02-17T12:19:18;101822.41;;;12.89;47.36
46944;BME280;32678;43.852;25.952;2023-02-17T12:24:40;101807.41;;;12.92;47.48
46944;BME280;32678;43.852;25.952;2023-02-17T12:29:58;101809.25;;;13.23;47.14
46944;BME280;32678;43.852;25.952;2023-02-17T12:35:02;101816.19;;;13.25;46.27
46944;BME280;32678;43.852;25.952;2023-02-17T12:40:00;101817.31;;;13.17;47.03
46944;BME280;32678;43.852;25.952;2023-02-17T12:44:58;101806.91;;;13.11;47.83
46944;BME280;32678;43.852;25.952;2023-02-17T12:50:02;101815.19;;;13.31;46.85
46944;BME280;32678;43.852;25.952;2023-02-17T12:55:02;101811.19;;;13.16;47.49
46944;BME280;32678;43.852;25.952;2023-02-17T13:00:01;101819.75;;;13.24;46.82
46944;BME280;32678;43.852;25.952;2023-02-17T13:05:01;101807.22;;;13.34;46.68
46944;BME280;32678;43.852;25.952;2023-02-17T13:10:00;101798.34;;;13.36;46.51
46944;BME280;32678;43.852;25.952;2023-02-17T13:14:58;101793.72;;;13.44;45.23
46944;BME280;32678;43.852;25.952;2023-02-17T13:20:00;101788.78;;;13.34;45.74
46944;BME280;32678;43.852;25.952;2023-02-17T13:25:01;101791.50;;;13.29;46.03
46944;BME280;32678;43.852;25.952;2023-02-17T13:29:59;101790.88;;;13.21;45.26
46944;BME280;32678;43.852;25.952;2023-02-17T13:35:01;101793.66;;;13.15;44.86
46944;BME280;32678;43.852;25.952;2023-02-17T13:40:07;101800.41;;;13.25;44.74
46944;BME280;32678;43.852;25.952;2023-02-17T13:45:20;101798.78;;;13.52;44.27
46944;BME280;32678;43.852;25.952;2023-02-17T13:50:26;101796.75;;;13.31;44.16
46944;BME280;32678;43.852;25.952;2023-02-17T13:55:24;101795.75;;;13.35;43.98
46944;BME280;32678;43.852;25.952;2023-02-17T14:00:24;101809.44;;;13.48;42.28
46944;BME280;32678;43.852;25.952;2023-02-17T14:05:23;101801.28;;;13.57;41.59
46944;BME280;32678;43.852;25.952;2023-02-17T14:10:22;101812.53;;;13.63;41.80
46944;BME280;32678;43.852;25.952;2023-02-17T14:15:21;101814.06;;;13.70;41.95
46944;BME280;32678;43.852;25.952;2023-02-17T14:20:23;101811.09;;;13.52;42.56
46944;BME280;32678;43.852;25.952;2023-02-17T14:25:24;101807.88;;;13.40;43.83
46944;BME280;32678;43.852;25.952;2023-02-17T14:30:29;101804.47;;;13.37;43.47
46944;BME280;32678;43.852;25.952;2023-02-17T14:35:27;101807.13;;;13.37;43.59
46944;BME280;32678;43.852;25.952;2023-02-17T14:40:24;101811.75;;;13.29;44.25
46944;BME280;32678;43.852;25.952;2023-02-17T14:45:23;101803.09;;;13.24;44.76
46944;BME280;32678;43.852;25.952;2023-02-17T14:50:20;101796.16;;;13.20;45.24
46944;BME280;32678;43.852;25.952;2023-02-17T14:55:21;101792.63;;;13.21;45.07
46944;BME280;32678;43.852;25.952;2023-02-17T15:00:20;101797.03;;;13.20;45.12
46944;BME280;32678;43.852;25.952;2023-02-17T15:05:17;101795.97;;;13.58;43.57
46944;BME280;32678;43.852;25.952;2023-02-17T15:10:17;101773.94;;;13.61;43.17
46944;BME280;32678;43.852;25.952;2023-02-17T15:15:16;101802.75;;;13.67;41.50
46944;BME280;32678;43.852;25.952;2023-02-17T15:20:20;101796.47;;;13.71;41.04
46944;BME280;32678;43.852;25.952;2023-02-17T15:25:28;101801.84;;;13.68;40.58
46944;BME280;32678;43.852;25.952;2023-02-17T15:30:27;101798.69;;;13.55;40.67
46944;BME280;32678;43.852;25.952;2023-02-17T15:35:25;101796.56;;;13.68;40.39
46944;BME280;32678;43.852;25.952;2023-02-17T15:40:23;101812.00;;;13.51;41.15
46944;BME280;32678;43.852;25.952;2023-02-17T15:45:23;101801.97;;;13.32;41.45
46944;BME280;32678;43.852;25.952;2023-02-17T15:50:26;101819.56;;;13.30;41.62
46944;BME280;32678;43.852;25.952;2023-02-17T15:55:26;101822.38;;;13.24;42.08
46944;BME280;32678;43.852;25.952;2023-02-17T16:00:25;101818.81;;;13.27;41.67
46944;BME280;32678;43.852;25.952;2023-02-17T16:05:27;101808.44;;;12.87;42.66
46944;BME280;32678;43.852;25.952;2023-02-17T16:10:24;101816.81;;;13.01;42.55
46944;BME280;32678;43.852;25.952;2023-02-17T16:15:26;101824.22;;;12.87;42.73
46944;BME280;32678;43.852;25.952;2023-02-17T16:20:26;101827.59;;;12.92;42.92
46944;BME280;32678;43.852;25.952;2023-02-17T16:25:40;101823.09;;;12.95;42.52
46944;BME280;32678;43.852;25.952;2023-02-17T16:30:38;101829.97;;;12.67;43.36
46944;BME280;32678;43.852;25.952;2023-02-17T16:35:36;101832.97;;;12.52;44.09
46944;BME280;32678;43.852;25.952;2023-02-17T16:40:36;101834.06;;;12.43;44.58
46944;BME280;32678;43.852;25.952;2023-02-17T16:45:48;101837.94;;;12.27;45.08
46944;BME280;32678;43.852;25.952;2023-02-17T16:51:12;101845.53;;;12.41;44.78
46944;BME280;32678;43.852;25.952;2023-02-17T16:56:20;101851.03;;;12.67;44.32
46944;BME280;32678;43.852;25.952;2023-02-17T17:01:24;101842.69;;;12.50;44.75
46944;BME280;32678;43.852;25.952;2023-02-17T17:06:21;101835.78;;;12.44;44.79
46944;BME280;32678;43.852;25.952;2023-02-17T17:11:21;101831.28;;;12.51;45.07
46944;BME280;32678;43.852;25.952;2023-02-17T17:16:21;101830.53;;;12.44;45.25
46944;BME280;32678;43.852;25.952;2023-02-17T17:21:19;101831.09;;;12.22;45.67
46944;BME280;32678;43.852;25.952;2023-02-17T17:26:22;101834.53;;;12.22;45.85
46944;BME280;32678;43.852;25.952;2023-02-17T17:31:20;101846.78;;;12.25;45.81
46944;BME280;32678;43.852;25.952;2023-02-17T17:36:21;101838.16;;;12.18;45.84
46944;BME280;32678;43.852;25.952;2023-02-17T17:41:20;101851.63;;;12.03;46.54
46944;BME280;32678;43.852;25.952;2023-02-17T17:46:19;101863.09;;;12.00;46.61
46944;BME280;32678;43.852;25.952;2023-02-17T17:51:24;101870.41;;;11.85;47.28
46944;BME280;32678;43.852;25.952;2023-02-17T17:56:21;101870.88;;;12.03;47.18
46944;BME280;32678;43.852;25.952;2023-02-17T18:01:19;101873.38;;;12.11;47.00
46944;BME280;32678;43.852;25.952;2023-02-17T18:06:17;101871.31;;;12.25;46.60
46944;BME280;32678;43.852;25.952;2023-02-17T18:11:16;101866.84;;;12.29;46.81
46944;BME280;32678;43.852;25.952;2023-02-17T18:16:14;101868.16;;;12.08;47.47
46944;BME280;32678;43.852;25.952;2023-02-17T18:21:43;101870.66;;;12.14;47.04
46944;BME280;32678;43.852;25.952;2023-02-17T18:26:31;101865.91;;;11.91;47.28
46944;BME280;32678;43.852;25.952;2023-02-17T18:31:32;101866.72;;;11.93;47.13
46944;BME280;32678;43.852;25.952;2023-02-17T18:36:29;101859.56;;;12.01;46.91
46944;BME280;32678;43.852;25.952;2023-02-17T18:41:26;101863.66;;;11.71;47.38
46944;BME280;32678;43.852;25.952;2023-02-17T18:46:24;101845.84;;;11.43;47.44
46944;BME280;32678;43.852;25.952;2023-02-17T18:51:26;101868.16;;;11.65;47.29
46944;BME280;32678;43.852;25.952;2023-02-17T18:56:24;101867.16;;;11.72;47.21
46944;BME280;32678;43.852;25.952;2023-02-17T19:01:25;101858.38;;;11.73;46.78
46944;BME280;32678;43.852;25.952;2023-02-17T19:06:23;101857.72;;;11.62;47.08
46944;BME280;32678;43.852;25.952;2023-02-17T19:11:20;101864.44;;;11.30;47.60
46944;BME280;32678;43.852;25.952;2023-02-17T19:16:18;101864.31;;;11.38;47.25
46944;BME280;32678;43.852;25.952;2023-02-17T19:21:16;101865.22;;;11.36;47.17
46944;BME280;32678;43.852;25.952;2023-02-17T19:26:13;101859.75;;;11.48;46.74
46944;BME280;32678;43.852;25.952;2023-02-17T19:31:11;101863.66;;;11.25;47.09
46944;BME280;32678;43.852;25.952;2023-02-17T19:36:11;101853.13;;;11.27;47.05
46944;BME280;32678;43.852;25.952;2023-02-17T19:41:10;101848.06;;;11.18;47.20
46944;BME280;32678;43.852;25.952;2023-02-17T19:46:08;101839.34;;;11.14;47.18
46944;BME280;32678;43.852;25.952;2023-02-17T19:51:11;101835.22;;;11.00;47.19
46944;BME280;32678;43.852;25.952;2023-02-17T19:56:10;101842.41;;;10.90;47.42
46944;BME280;32678;43.852;25.952;2023-02-17T20:01:08;101847.22;;;10.64;47.76
46944;BME280;32678;43.852;25.952;2023-02-17T20:06:06;101843.84;;;10.56;47.97
46944;BME280;32678;43.852;25.952;2023-02-17T20:11:04;101850.25;;;10.38;48.43
46944;BME280;32678;43.852;25.952;2023-02-17T20:16:08;101854.75;;;10.30;48.65
46944;BME280;32678;43.852;25.952;2023-02-17T20:21:06;101848.13;;;10.02;49.44
46944;BME280;32678;43.852;25.952;2023-02-17T20:26:04;101831.66;;;9.92;49.60
46944;BME280;32678;43.852;25.952;2023-02-17T20:31:02;101831.81;;;9.78;49.88
46944;BME280;32678;43.852;25.952;2023-02-17T20:36:00;101838.78;;;9.81;49.76
46944;BME280;32678;43.852;25.952;2023-02-17T20:40:57;101833.50;;;9.84;49.25
46944;BME280;32678;43.852;25.952;2023-02-17T20:45:53;101831.06;;;9.69;49.41
46944;BME280;32678;43.852;25.952;2023-02-17T20:50:51;101822.25;;;9.77;49.20
46944;BME280;32678;43.852;25.952;2023-02-17T20:55:54;101819.50;;;9.86;49.16
46944;BME280;32678;43.852;25.952;2023-02-17T21:00:54;101829.06;;;9.89;48.89
46944;BME280;32678;43.852;25.952;2023-02-17T21:05:51;101822.19;;;9.79;48.98
46944;BME280;32678;43.852;25.952;2023-02-17T21:10:52;101825.09;;;9.57;49.35
46944;BME280;32678;43.852;25.952;2023-02-17T21:15:52;101820.75;;;9.55;49.26
46944;BME280;32678;43.852;25.952;2023-02-17T21:20:51;101817.03;;;9.74;48.71
46944;BME280;32678;43.852;25.952;2023-02-17T21:25:48;101819.59;;;9.79;48.57
46944;BME280;32678;43.852;25.952;2023-02-17T21:30:47;101788.44;;;9.57;48.62
46944;BME280;32678;43.852;25.952;2023-02-17T21:35:45;101799.56;;;9.75;48.39
46944;BME280;32678;43.852;25.952;2023-02-17T21:40:41;101801.84;;;9.99;47.88
46944;BME280;32678;43.852;25.952;2023-02-17T21:45:38;101798.53;;;9.86;48.28
46944;BME280;32678;43.852;25.952;2023-02-17T21:50:35;101797.81;;;9.77;48.74
46944;BME280;32678;43.852;25.952;2023-02-17T21:55:32;101789.84;;;9.83;48.80
46944;BME280;32678;43.852;25.952;2023-02-17T22:00:29;101800.97;;;10.00;48.61
46944;BME280;32678;43.852;25.952;2023-02-17T22:05:28;101804.66;;;9.85;48.87
46944;BME280;32678;43.852;25.952;2023-02-17T22:10:25;101796.88;;;9.79;49.24
46944;BME280;32678;43.852;25.952;2023-02-17T22:15:22;101793.38;;;9.80;49.21
46944;BME280;32678;43.852;25.952;2023-02-17T22:20:19;101785.66;;;9.71;49.36
46944;BME280;32678;43.852;25.952;2023-02-17T22:25:16;101771.56;;;9.80;49.24
46944;BME280;32678;43.852;25.952;2023-02-17T22:30:15;101766.13;;;9.93;49.31
46944;BME280;32678;43.852;25.952;2023-02-17T22:35:13;101740.28;;;9.68;49.76
46944;BME280;32678;43.852;25.952;2023-02-17T22:40:12;101746.84;;;9.99;48.63
46944;BME280;32678;43.852;25.952;2023-02-17T22:45:09;101746.63;;;10.13;48.49
46944;BME280;32678;43.852;25.952;2023-02-17T22:50:09;101746.66;;;10.11;48.74
46944;BME280;32678;43.852;25.952;2023-02-17T22:55:06;101739.56;;;10.21;48.44
46944;BME280;32678;43.852;25.952;2023-02-17T23:00:04;101739.41;;;10.30;48.02
46944;BME280;32678;43.852;25.952;2023-02-17T23:05:01;101737.72;;;10.26;48.46
46944;BME280;32678;43.852;25.952;2023-02-17T23:09:58;101732.34;;;10.35;48.45
46944;BME280;32678;43.852;25.952;2023-02-17T23:14:55;101733.22;;;10.34;48.64
46944;BME280;32678;43.852;25.952;2023-02-17T23:19:51;101732.56;;;10.21;49.14
46944;BME280;32678;43.852;25.952;2023-02-17T23:24:51;101744.00;;;10.16;49.45
46944;BME280;32678;43.852;25.952;2023-02-17T23:29:48;101738.69;;;10.19;49.66
46944;BME280;32678;43.852;25.952;2023-02-17T23:34:45;101734.53;;;10.04;49.98
46944;BME280;32678;43.852;25.952;2023-02-17T23:39:42;101735.56;;;9.92;50.38
46944;BME280;32678;43.852;25.952;2023-02-17T23:44:41;101724.75;;;9.54;51.71
46944;BME280;32678;43.852;25.952;2023-02-17T23:49:38;101715.22;;;9.48;52.31
46944;BME280;32678;43.852;25.952;2023-02-17T23:54:35;101730.00;;;9.54;51.93
46944;BME280;32678;43.852;25.952;2023-02-17T23:59:35;101715.34;;;9.41;52.62
